createdAt,value
2023-03-24T00:01:28.543Z,99576.55
2023-03-24T00:04:29.688Z,99569.97
2023-03-24T00:07:36.542Z,99564.56
2023-03-24T00:10:40.802Z,99559.69
2023-03-24T00:13:44.587Z,99554.14
2023-03-24T00:16:44.619Z,99549.44
2023-03-24T00:19:44.828Z,99553.52
2023-03-24T00:22:48.604Z,99552.96
2023-03-24T00:25:48.725Z,99555.17
2023-03-24T00:28:54.608Z,99553.59
2023-03-24T00:31:54.710Z,99546.83
2023-03-24T00:34:55.900Z,99547.83
2023-03-24T00:37:59.489Z,99541.09
2023-03-24T00:40:59.605Z,99537.98
2023-03-24T00:44:00.613Z,99534.04
2023-03-24T00:47:05.789Z,99529.58
2023-03-24T00:50:07.665Z,99526.81
2023-03-24T00:53:09.680Z,99521.14
2023-03-24T00:56:09.699Z,99518.90
2023-03-24T00:59:03.002Z,99524.20
2023-03-24T01:02:05.678Z,99520.91
2023-03-24T01:05:08.010Z,99516.39
2023-03-24T01:08:11.694Z,99515.70
2023-03-24T01:11:13.708Z,99514.50
2023-03-24T01:14:15.719Z,99513.63
2023-03-24T01:17:20.634Z,99512.75
2023-03-24T01:20:20.775Z,99508.27
2023-03-24T01:23:21.792Z,99506.18
2023-03-24T01:26:22.865Z,99507.02
2023-03-24T01:29:22.713Z,99506.98
2023-03-24T01:32:23.804Z,99504.40
2023-03-24T01:35:29.398Z,99502.68
2023-03-24T01:38:30.681Z,99507.52
2023-03-24T01:41:30.739Z,99503.05
2023-03-24T01:44:36.732Z,99500.70
2023-03-24T01:47:36.741Z,99502.85
2023-03-24T01:50:37.695Z,99499.45
2023-03-24T01:53:39.748Z,99501.86
2023-03-24T01:56:43.328Z,99504.48
2023-03-24T01:59:43.732Z,99508.98
2023-03-24T02:03:15.779Z,99512.27
2023-03-24T02:06:19.756Z,99515.55
2023-03-24T02:09:24.070Z,99514.50
2023-03-24T02:12:24.757Z,99520.46
2023-03-24T02:15:25.759Z,99520.23
2023-03-24T02:18:38.803Z,99524.33
2023-03-24T02:21:51.852Z,99529.08
2023-03-24T02:25:03.934Z,99527.81
2023-03-24T02:28:35.831Z,99523.95
2023-03-24T02:31:50.109Z,99522.86
2023-03-24T02:35:05.843Z,99523.98
2023-03-24T02:38:24.830Z,99520.21
2023-03-24T02:41:31.077Z,99524.01
2023-03-24T02:44:44.877Z,99515.96
2023-03-24T02:47:52.961Z,99521.83
2023-03-24T02:51:11.885Z,99530.97
2023-03-24T02:54:17.874Z,99536.81
2023-03-24T02:57:19.072Z,99539.77
2023-03-24T03:00:48.233Z,99536.68
2023-03-24T03:04:07.880Z,99536.69
2023-03-24T03:07:15.876Z,99538.41
2023-03-24T03:10:23.615Z,99538.80
2023-03-24T03:13:29.920Z,99540.03
2023-03-24T03:16:44.860Z,99542.28
2023-03-24T03:19:48.164Z,99538.52
2023-03-24T03:23:08.893Z,99542.09
2023-03-24T03:26:10.901Z,99543.58
2023-03-24T03:29:10.889Z,99541.99
2023-03-24T03:32:17.058Z,99544.91
2023-03-24T03:35:23.900Z,99541.48
2023-03-24T03:38:26.910Z,99544.56
2023-03-24T03:41:26.901Z,99539.41
2023-03-24T03:44:27.941Z,99544.42
2023-03-24T03:47:28.986Z,99549.41
2023-03-24T03:50:28.967Z,99549.08
2023-03-24T03:53:32.911Z,99556.85
2023-03-24T03:56:34.980Z,99556.67
2023-03-24T03:59:47.159Z,99558.27
2023-03-24T04:03:05.186Z,99560.18
2023-03-24T04:06:09.050Z,99562.77
2023-03-24T04:09:30.242Z,99561.73
2023-03-24T04:12:40.145Z,99567.45
2023-03-24T04:16:24.472Z,99570.55
2023-03-24T04:19:39.971Z,99566.96
2023-03-24T04:22:56.984Z,99574.91
2023-03-24T04:26:03.986Z,99579.92
2023-03-24T04:29:26.033Z,99585.80
2023-03-24T04:32:42.031Z,99583.59
2023-03-24T04:35:50.121Z,99580.68
2023-03-24T04:39:03.016Z,99583.98
2023-03-24T04:42:11.023Z,99589.67
2023-03-24T04:45:12.076Z,99595.39
2023-03-24T04:48:13.111Z,99593.35
2023-03-24T04:51:35.036Z,99602.70
2023-03-24T04:54:58.109Z,99610.80
2023-03-24T04:58:02.019Z,99611.52
2023-03-24T05:01:04.075Z,99607.07
2023-03-24T05:04:04.088Z,99616.07
2023-03-24T05:07:08.081Z,99618.70
2023-03-24T05:10:10.083Z,99619.60
2023-03-24T05:13:18.164Z,99617.23
2023-03-24T05:16:21.100Z,99608.98
2023-03-24T05:19:30.552Z,99608.14
2023-03-24T05:22:32.182Z,99612.27
2023-03-24T05:25:33.336Z,99610.42
2023-03-24T05:28:35.145Z,99612.67
2023-03-24T05:31:38.802Z,99611.86
2023-03-24T05:34:53.668Z,99607.77
2023-03-24T05:37:58.201Z,99614.91
2023-03-24T05:40:58.221Z,99623.05
2023-03-24T05:44:01.119Z,99625.40
2023-03-24T05:47:02.976Z,99618.95
2023-03-24T05:50:06.597Z,99617.05
2023-03-24T05:53:14.203Z,99616.98
2023-03-24T05:56:44.191Z,99613.39
2023-03-24T06:00:00.182Z,99611.35
2023-03-24T06:03:16.428Z,99614.77
2023-03-24T06:06:30.104Z,99612.48
2023-03-24T06:09:35.273Z,99614.41
2023-03-24T06:12:44.993Z,99619.95
2023-03-24T06:15:53.265Z,99622.89
2023-03-24T06:19:01.204Z,99618.55
2023-03-24T06:22:30.236Z,99620.61
2023-03-24T06:25:34.187Z,99616.27
2023-03-24T06:28:41.244Z,99622.19
2023-03-24T06:31:54.586Z,99622.91
2023-03-24T06:34:55.386Z,99621.51
2023-03-24T06:38:20.455Z,99623.23
2023-03-24T06:41:24.236Z,99619.54
2023-03-24T06:44:30.403Z,99621.73
2023-03-24T06:47:33.779Z,99624.44
2023-03-24T06:50:41.162Z,99623.33
2023-03-24T06:53:47.279Z,99624.10
2023-03-24T06:56:49.349Z,99624.36
2023-03-24T06:59:53.312Z,99625.67
2023-03-24T07:02:58.411Z,99629.77
2023-03-24T07:06:01.313Z,99631.64
2023-03-24T07:09:03.256Z,99628.84
2023-03-24T07:12:04.449Z,99628.85
2023-03-24T07:15:04.298Z,99627.49
2023-03-24T07:18:06.274Z,99627.85
2023-03-24T07:21:19.781Z,99626.65
2023-03-24T07:24:22.537Z,99631.17
2023-03-24T07:27:35.539Z,99635.66
2023-03-24T07:30:41.386Z,99634.45
2023-03-24T07:33:41.361Z,99641.21
2023-03-24T07:36:42.530Z,99640.20
2023-03-24T07:39:50.565Z,99635.88
2023-03-24T07:42:53.339Z,99633.66
2023-03-24T07:46:20.396Z,99634.41
2023-03-24T07:49:21.341Z,99630.82
2023-03-24T07:52:30.361Z,99628.26
2023-03-24T07:55:33.386Z,99624.83
2023-03-24T07:58:39.446Z,99624.52
2023-03-24T08:01:43.382Z,99625.42
2023-03-24T08:04:51.066Z,99629.39
2023-03-24T08:08:30.414Z,99627.84
2023-03-24T08:11:35.387Z,99627.30
2023-03-24T08:14:40.499Z,99631.29
2023-03-24T08:17:49.744Z,99634.77
2023-03-24T08:21:01.604Z,99626.83
2023-03-24T08:24:10.527Z,99626.51
2023-03-24T08:27:16.661Z,99626.34
2023-03-24T08:30:21.548Z,99622.70
2023-03-24T08:33:23.457Z,99624.78
2023-03-24T08:36:24.547Z,99620.98
2023-03-24T08:39:24.502Z,99626.20
2023-03-24T08:42:28.889Z,99618.77
2023-03-24T08:45:36.657Z,99615.68
2023-03-24T08:48:47.679Z,99615.17
2023-03-24T08:51:51.848Z,99613.81
2023-03-24T08:54:57.655Z,99616.64
2023-03-24T08:58:01.564Z,99612.15
2023-03-24T09:01:04.509Z,99612.15
2023-03-24T09:04:05.566Z,99605.56
2023-03-24T09:07:06.528Z,99599.52
2023-03-24T09:10:07.517Z,99604.88
2023-03-24T09:13:09.528Z,99609.02
2023-03-24T09:16:12.982Z,99603.45
2023-03-24T09:19:32.071Z,99604.80
2023-03-24T09:22:37.080Z,99604.23
2023-03-24T09:25:41.746Z,99608.51
2023-03-24T09:28:43.538Z,99599.23
2023-03-24T09:31:43.814Z,99601.42
2023-03-24T09:34:46.531Z,99604.17
2023-03-24T09:37:50.900Z,99599.09
2023-03-24T09:40:51.525Z,99599.94
2023-03-24T09:44:08.588Z,99598.19
2023-03-24T09:47:18.517Z,99595.24
2023-03-24T09:50:34.145Z,99588.95
2023-03-24T09:54:02.017Z,99590.07
2023-03-24T09:57:05.641Z,99583.32
2023-03-24T10:00:08.587Z,99581.55
2023-03-24T10:03:13.682Z,99582.01
2023-03-24T10:06:39.149Z,99579.20
2023-03-24T10:09:42.773Z,99578.33
2023-03-24T10:12:52.923Z,99575.06
2023-03-24T10:16:04.630Z,99569.72
2023-03-24T10:19:09.877Z,99567.96
2023-03-24T10:22:31.658Z,99568.11
2023-03-24T10:25:34.658Z,99562.15
2023-03-24T10:28:45.074Z,99564.95
2023-03-24T10:32:03.490Z,99558.21
2023-03-24T10:35:18.373Z,99560.71
2023-03-24T10:38:30.641Z,99563.60
2023-03-24T10:41:43.911Z,99556.05
2023-03-24T10:44:54.079Z,99552.90
2023-03-24T10:47:58.158Z,99546.05
2023-03-24T10:51:04.873Z,99544.37
2023-03-24T10:54:08.762Z,99540.73
2023-03-24T10:57:12.790Z,99536.65
2023-03-24T11:00:30.834Z,99530.48
2023-03-24T11:03:40.022Z,99532.96
2023-03-24T11:06:46.145Z,99527.16
2023-03-24T11:10:00.861Z,99531.94
2023-03-24T11:13:17.950Z,99519.77
2023-03-24T11:16:26.760Z,99523.72
2023-03-24T11:19:33.287Z,99516.50
2023-03-24T11:22:35.982Z,99513.37
2023-03-24T11:25:43.801Z,99509.86
2023-03-24T11:28:44.745Z,99513.30
2023-03-24T11:31:50.854Z,99505.94
2023-03-24T11:34:51.760Z,99495.45
2023-03-24T11:37:55.919Z,99505.31
2023-03-24T11:41:11.810Z,99502.15
2023-03-24T11:44:29.284Z,99495.33
2023-03-24T11:48:03.351Z,99498.02
2023-03-24T11:51:04.790Z,99492.83
2023-03-24T11:54:09.347Z,99488.63
2023-03-24T11:57:11.329Z,99483.05
2023-03-24T12:00:15.070Z,99477.11
2023-03-24T12:03:27.999Z,99479.05
2023-03-24T12:06:58.593Z,99466.45
2023-03-24T12:10:14.895Z,99465.73
2023-03-24T12:13:54.089Z,99457.05
2023-03-24T12:17:10.857Z,99453.67
2023-03-24T12:20:21.857Z,99453.77
2023-03-24T12:23:46.485Z,99450.91
2023-03-24T12:26:57.911Z,99449.58
2023-03-24T12:30:14.746Z,99448.23
2023-03-24T12:33:31.863Z,99439.84
2023-03-24T12:36:43.059Z,99446.45
2023-03-24T12:39:45.457Z,99441.56
2023-03-24T12:42:52.117Z,99439.38
2023-03-24T12:46:08.214Z,99446.34
2023-03-24T12:49:34.087Z,99440.49
2023-03-24T12:53:06.800Z,99432.41
2023-03-24T12:56:28.158Z,99425.19
2023-03-24T12:59:51.137Z,99423.73
2023-03-24T13:10:27.985Z,99420.18
2023-03-24T13:13:35.384Z,99415.30
2023-03-24T13:16:51.036Z,99412.77
2023-03-24T13:19:58.532Z,99412.89
2023-03-24T13:23:01.016Z,99419.40
2023-03-24T13:26:08.411Z,99411.51
2023-03-24T13:29:47.963Z,99406.65
2023-03-24T13:32:53.103Z,99409.96
2023-03-24T13:36:01.700Z,99406.30
2023-03-24T13:39:05.346Z,99401.11
2023-03-24T13:42:09.100Z,99395.73
2023-03-24T13:45:08.969Z,99393.60
2023-03-24T13:48:12.164Z,99393.41
2023-03-24T13:51:34.283Z,99392.48
2023-03-24T13:54:43.793Z,99387.73
2023-03-24T13:57:48.010Z,99386.77
2023-03-24T14:01:13.509Z,99389.48
2023-03-24T14:04:30.628Z,99382.31
2023-03-24T14:07:39.049Z,99358.56
2023-03-24T14:11:01.052Z,99377.12
2023-03-24T14:14:04.604Z,99372.84
2023-03-24T14:17:07.031Z,99376.11
2023-03-24T14:20:20.475Z,99381.59
2023-03-24T14:23:30.150Z,99373.31
2023-03-24T14:26:34.028Z,99378.42
2023-03-24T14:29:48.197Z,99372.20
2023-03-24T14:32:52.232Z,99375.06
2023-03-24T14:35:55.123Z,99376.54
2023-03-24T14:38:56.098Z,99375.92
2023-03-24T14:41:59.246Z,99364.70
2023-03-24T14:45:04.246Z,99379.62
2023-03-24T14:48:11.114Z,99369.55
2023-03-24T14:51:33.261Z,99367.67
2023-03-24T14:54:43.125Z,99363.71
2023-03-24T14:57:46.898Z,99354.86
2023-03-24T15:01:06.403Z,99358.08
2023-03-24T15:04:21.787Z,99364.44
2023-03-24T15:07:28.733Z,99357.78
2023-03-24T15:10:30.468Z,99352.64
2023-03-24T15:13:52.219Z,99355.50
2023-03-24T15:16:56.173Z,99351.92
2023-03-24T15:20:05.582Z,99350.23
2023-03-24T15:23:06.180Z,99352.39
2023-03-24T15:26:10.153Z,99355.92
2023-03-24T15:29:14.403Z,99355.30
2023-03-24T15:32:14.133Z,99355.70
2023-03-24T15:35:19.777Z,99362.75
2023-03-24T15:38:34.823Z,99362.29
2023-03-24T15:41:39.904Z,99357.48
2023-03-24T15:44:42.971Z,99362.45
2023-03-24T15:47:46.472Z,99361.14
2023-03-24T15:50:54.404Z,99360.02
2023-03-24T15:53:57.647Z,99354.16
2023-03-24T15:56:58.260Z,99355.10
2023-03-24T16:00:02.533Z,99360.73
2023-03-24T16:03:09.771Z,99363.91
2023-03-24T16:06:11.468Z,99361.91
2023-03-24T16:09:11.236Z,99362.95
2023-03-24T16:12:15.258Z,99363.33
2023-03-24T16:15:17.261Z,99364.59
2023-03-24T16:18:21.572Z,99368.27
2023-03-24T16:21:38.721Z,99370.09
2023-03-24T16:24:42.345Z,99373.08
2023-03-24T16:27:43.292Z,99375.35
2023-03-24T16:30:46.629Z,99381.31
2023-03-24T16:33:51.269Z,99376.15
2023-03-24T16:36:54.563Z,99380.70
2023-03-24T16:39:57.304Z,99382.84
2023-03-24T16:43:02.391Z,99382.01
2023-03-24T16:46:12.749Z,99384.29
2023-03-24T16:49:16.348Z,99382.60
2023-03-24T16:52:22.496Z,99384.88
2023-03-24T16:55:32.360Z,99388.36
2023-03-24T16:58:35.712Z,99388.39
2023-03-24T17:01:53.616Z,99386.15
2023-03-24T17:04:55.456Z,99384.98
2023-03-24T17:08:01.973Z,99383.08
2023-03-24T17:11:09.874Z,99388.66
2023-03-24T17:14:18.370Z,99382.98
2023-03-24T17:17:27.089Z,99389.92
2023-03-24T17:20:29.675Z,99393.42
2023-03-24T17:23:33.626Z,99389.63
2023-03-24T17:26:34.622Z,99391.73
2023-03-24T17:29:37.397Z,99387.25
2023-03-24T17:32:46.026Z,99386.77
2023-03-24T17:35:49.357Z,99383.50
2023-03-24T17:38:55.773Z,99385.96
2023-03-24T17:42:03.421Z,99387.18
2023-03-24T17:45:04.660Z,99391.55
2023-03-24T17:48:14.911Z,99394.15
2023-03-24T17:51:36.682Z,99395.88
2023-03-24T17:54:39.627Z,99398.83
2023-03-24T17:57:41.465Z,99400.05
2023-03-24T18:00:44.002Z,99394.49
2023-03-24T18:03:56.761Z,99398.83
2023-03-24T18:06:57.480Z,99392.77
2023-03-24T18:10:01.216Z,99397.67
2023-03-24T18:13:21.488Z,99400.67
2023-03-24T18:16:23.554Z,99402.29
2023-03-24T18:19:25.470Z,99399.73
2023-03-24T18:22:50.645Z,99403.41
2023-03-24T18:25:51.520Z,99407.96
2023-03-24T18:28:53.469Z,99410.61
2023-03-24T18:31:59.360Z,99414.80
2023-03-24T18:35:01.518Z,99416.72
2023-03-24T18:38:04.499Z,99410.16
2023-03-24T18:41:16.769Z,99415.55
2023-03-24T18:44:23.532Z,99416.79
2023-03-24T18:47:25.531Z,99418.38
2023-03-24T18:50:26.558Z,99418.73
2023-03-24T18:53:32.504Z,99418.59
2023-03-24T18:56:34.840Z,99417.05
2023-03-24T18:59:36.604Z,99415.34
2023-03-24T19:02:37.625Z,99414.15
2023-03-24T19:05:41.021Z,99416.23
2023-03-24T19:08:46.461Z,99418.02
2023-03-24T19:11:50.931Z,99415.08
2023-03-24T19:14:52.644Z,99412.84
2023-03-24T19:17:53.023Z,99406.79
2023-03-24T19:20:54.606Z,99407.16
2023-03-24T19:23:55.568Z,99403.17
2023-03-24T19:26:55.561Z,99402.01
2023-03-24T19:29:57.878Z,99397.33
2023-03-24T19:33:01.763Z,99396.48
2023-03-24T19:36:03.711Z,99393.55
2023-03-24T19:39:07.549Z,99387.16
2023-03-24T19:42:13.667Z,99389.26
2023-03-24T19:45:17.036Z,99385.11
2023-03-24T19:48:16.769Z,99386.87
2023-03-24T19:51:20.697Z,99388.09
2023-03-24T19:54:22.344Z,99381.36
2023-03-24T19:57:25.257Z,99370.61
2023-03-24T20:00:30.194Z,99365.23
2023-03-24T20:03:32.239Z,99360.21
2023-03-24T20:06:35.822Z,99356.23
2023-03-24T20:09:37.512Z,99356.58
2023-03-24T20:15:55.959Z,99344.96
2023-03-24T20:19:00.923Z,99342.54
2023-03-24T20:22:06.317Z,99339.76
2023-03-24T20:25:11.005Z,99338.38
2023-03-24T20:28:26.913Z,99336.98
2023-03-24T20:31:31.051Z,99329.70
2023-03-24T20:34:32.710Z,99331.59
2023-03-24T20:37:37.779Z,99329.16
2023-03-24T20:40:48.743Z,99325.36
2023-03-24T20:44:09.330Z,99319.45
2023-03-24T20:47:10.851Z,99315.30
2023-03-24T20:50:15.134Z,99312.02
2023-03-24T20:53:22.765Z,99314.30
2023-03-24T20:56:29.010Z,99314.12
2023-03-24T21:02:52.997Z,99313.11
2023-03-24T21:06:19.760Z,99309.69
2023-03-24T21:09:26.617Z,99302.06
2023-03-24T21:12:31.060Z,99300.52
2023-03-24T21:15:34.967Z,99300.35
2023-03-24T21:18:45.792Z,99299.84
2023-03-24T21:21:51.273Z,99298.13
2023-03-24T21:24:54.314Z,99292.94
2023-03-24T21:27:56.804Z,99291.05
2023-03-24T21:30:59.333Z,99289.85
2023-03-24T21:34:02.052Z,99287.97
2023-03-24T21:37:03.039Z,99295.42
2023-03-24T21:40:07.245Z,99289.74
2023-03-24T21:43:10.829Z,99281.95
2023-03-24T21:46:13.154Z,99284.23
2023-03-24T21:49:17.928Z,99281.99
2023-03-24T21:52:26.323Z,99278.20
2023-03-24T21:55:34.411Z,99280.98
2023-03-24T21:58:38.918Z,99277.02
2023-03-24T22:01:42.546Z,99273.23
2023-03-24T22:04:50.837Z,99273.58
2023-03-24T22:07:56.912Z,99268.72
2023-03-24T22:11:04.093Z,99277.73
2023-03-24T22:14:04.989Z,99281.70
2023-03-24T22:17:10.126Z,99264.92
2023-03-24T22:20:13.069Z,99268.71
2023-03-24T22:23:12.886Z,99262.48
2023-03-24T22:26:19.903Z,99260.74
2023-03-24T22:29:21.028Z,99263.51
2023-03-24T22:32:25.198Z,99263.35
2023-03-24T22:35:29.102Z,99260.05
2023-03-24T22:38:30.045Z,99263.35
2023-03-24T22:41:30.962Z,99263.17
2023-03-24T22:44:32.959Z,99253.67
2023-03-24T22:47:34.973Z,99253.68
2023-03-24T22:50:36.174Z,99249.20
2023-03-24T22:53:39.001Z,99236.91
2023-03-24T22:56:41.034Z,99240.02
2023-03-24T22:59:44.367Z,99255.44
2023-03-24T23:02:45.070Z,99247.85
2023-03-24T23:05:46.125Z,99247.32
2023-03-24T23:08:49.602Z,99243.88
2023-03-24T23:11:51.140Z,99244.75
2023-03-24T23:14:54.052Z,99240.43
2023-03-24T23:17:56.161Z,99234.89
2023-03-24T23:21:03.394Z,99236.11
2023-03-24T23:24:03.486Z,99237.14
2023-03-24T23:27:06.977Z,99235.75
2023-03-24T23:30:09.232Z,99234.54
2023-03-24T23:33:14.069Z,99222.44
2023-03-24T23:36:15.976Z,99226.94
2023-03-24T23:39:20.123Z,99220.02
2023-03-24T23:42:24.035Z,99216.04
2023-03-24T23:45:27.012Z,99215.52
2023-03-24T23:48:28.030Z,99209.10
2023-03-24T23:51:30.018Z,99211.35
2023-03-24T23:54:33.347Z,99198.73
2023-03-24T23:57:34.237Z,99199.60
